sensor_id;sensor_type;location;lat;lon;timestamp;P1;durP1;ratioP1;P2;durP2;ratioP2
6527;SDS011;64597;42.664;23.256;2023-12-20T00:01:04;17.70;;;9.75;;
6527;SDS011;64597;42.664;23.256;2023-12-20T00:03:31;20.42;;;8.93;;
6527;SDS011;64597;42.664;23.256;2023-12-20T00:05:57;15.55;;;8.00;;
6527;SDS011;64597;42.664;23.256;2023-12-20T00:08:24;17.27;;;8.10;;
6527;SDS011;64597;42.664;23.256;2023-12-20T00:10:50;17.70;;;7.72;;
6527;SDS011;64597;42.664;23.256;2023-12-20T00:13:15;17.30;;;8.07;;
6527;SDS011;64597;42.664;23.256;2023-12-20T00:15:41;11.50;;;7.10;;
6527;SDS011;64597;42.664;23.256;2023-12-20T00:18:07;15.27;;;7.45;;
6527;SDS011;64597;42.664;23.256;2023-12-20T00:20:33;15.20;;;6.82;;
6527;SDS011;64597;42.664;23.256;2023-12-20T00:22:59;14.07;;;6.82;;
6527;SDS011;64597;42.664;23.256;2023-12-20T00:25:25;11.73;;;7.43;;
6527;SDS011;64597;42.664;23.256;2023-12-20T00:27:52;13.43;;;7.65;;
6527;SDS011;64597;42.664;23.256;2023-12-20T00:30:19;15.32;;;6.93;;
6527;SDS011;64597;42.664;23.256;2023-12-20T00:32:45;14.23;;;7.60;;
6527;SDS011;64597;42.664;23.256;2023-12-20T00:35:15;13.95;;;6.82;;
6527;SDS011;64597;42.664;23.256;2023-12-20T00:37:42;12.82;;;5.63;;
6527;SDS011;64597;42.664;23.256;2023-12-20T00:40:10;9.45;;;5.75;;
6527;SDS011;64597;42.664;23.256;2023-12-20T00:42:36;10.02;;;5.30;;
6527;SDS011;64597;42.664;23.256;2023-12-20T00:45:02;11.68;;;5.65;;
6527;SDS011;64597;42.664;23.256;2023-12-20T00:47:30;10.02;;;5.80;;
6527;SDS011;64597;42.664;23.256;2023-12-20T00:49:57;9.40;;;5.80;;
6527;SDS011;64597;42.664;23.256;2023-12-20T00:52:24;11.43;;;4.85;;
6527;SDS011;64597;42.664;23.256;2023-12-20T00:54:50;10.18;;;5.28;;
6527;SDS011;64597;42.664;23.256;2023-12-20T00:57:16;11.88;;;5.45;;
6527;SDS011;64597;42.664;23.256;2023-12-20T00:59:42;4.60;;;3.45;;
6527;SDS011;64597;42.664;23.256;2023-12-20T01:02:08;10.57;;;5.13;;
6527;SDS011;64597;42.664;23.256;2023-12-20T01:04:35;9.23;;;4.97;;
6527;SDS011;64597;42.664;23.256;2023-12-20T01:07:01;11.00;;;5.53;;
6527;SDS011;64597;42.664;23.256;2023-12-20T01:09:27;9.27;;;5.00;;
6527;SDS011;64597;42.664;23.256;2023-12-20T01:11:53;7.47;;;4.43;;
6527;SDS011;64597;42.664;23.256;2023-12-20T01:14:19;6.47;;;4.40;;
6527;SDS011;64597;42.664;23.256;2023-12-20T01:16:46;13.95;;;7.20;;
6527;SDS011;64597;42.664;23.256;2023-12-20T01:19:12;9.55;;;6.40;;
6527;SDS011;64597;42.664;23.256;2023-12-20T01:21:41;10.63;;;5.40;;
6527;SDS011;64597;42.664;23.256;2023-12-20T01:24:07;10.88;;;4.47;;
6527;SDS011;64597;42.664;23.256;2023-12-20T01:26:33;12.13;;;5.30;;
6527;SDS011;64597;42.664;23.256;2023-12-20T01:28:59;10.05;;;4.97;;
6527;SDS011;64597;42.664;23.256;2023-12-20T01:31:26;6.47;;;4.10;;
6527;SDS011;64597;42.664;23.256;2023-12-20T01:33:52;9.60;;;4.45;;
6527;SDS011;64597;42.664;23.256;2023-12-20T01:36:19;6.82;;;4.05;;
6527;SDS011;64597;42.664;23.256;2023-12-20T01:38:45;6.10;;;4.10;;
6527;SDS011;64597;42.664;23.256;2023-12-20T01:41:11;10.43;;;4.88;;
6527;SDS011;64597;42.664;23.256;2023-12-20T01:43:37;5.22;;;4.00;;
6527;SDS011;64597;42.664;23.256;2023-12-20T01:46:03;7.80;;;4.10;;
6527;SDS011;64597;42.664;23.256;2023-12-20T01:48:31;11.35;;;4.72;;
6527;SDS011;64597;42.664;23.256;2023-12-20T01:50:59;6.57;;;4.70;;
6527;SDS011;64597;42.664;23.256;2023-12-20T01:53:26;5.68;;;4.22;;
6527;SDS011;64597;42.664;23.256;2023-12-20T01:55:54;5.85;;;4.10;;
6527;SDS011;64597;42.664;23.256;2023-12-20T01:58:22;8.20;;;4.18;;
6527;SDS011;64597;42.664;23.256;2023-12-20T02:00:48;7.70;;;3.33;;
6527;SDS011;64597;42.664;23.256;2023-12-20T02:03:14;8.23;;;4.43;;
6527;SDS011;64597;42.664;23.256;2023-12-20T02:05:42;9.30;;;4.13;;
6527;SDS011;64597;42.664;23.256;2023-12-20T02:08:09;10.52;;;4.72;;
6527;SDS011;64597;42.664;23.256;2023-12-20T02:10:36;6.80;;;4.13;;
6527;SDS011;64597;42.664;23.256;2023-12-20T02:13:03;7.45;;;4.07;;
6527;SDS011;64597;42.664;23.256;2023-12-20T02:15:30;12.25;;;5.78;;
6527;SDS011;64597;42.664;23.256;2023-12-20T02:17:55;10.65;;;4.82;;
6527;SDS011;64597;42.664;23.256;2023-12-20T02:20:21;8.02;;;4.97;;
6527;SDS011;64597;42.664;23.256;2023-12-20T02:22:47;9.80;;;4.55;;
6527;SDS011;64597;42.664;23.256;2023-12-20T02:25:13;9.57;;;4.57;;
6527;SDS011;64597;42.664;23.256;2023-12-20T02:27:39;8.88;;;4.40;;
6527;SDS011;64597;42.664;23.256;2023-12-20T02:30:05;8.57;;;4.40;;
6527;SDS011;64597;42.664;23.256;2023-12-20T02:32:34;8.68;;;4.90;;
6527;SDS011;64597;42.664;23.256;2023-12-20T02:34:59;10.52;;;4.72;;
6527;SDS011;64597;42.664;23.256;2023-12-20T02:37:25;8.73;;;3.75;;
6527;SDS011;64597;42.664;23.256;2023-12-20T02:39:51;8.60;;;5.15;;
6527;SDS011;64597;42.664;23.256;2023-12-20T02:42:17;8.40;;;4.85;;
6527;SDS011;64597;42.664;23.256;2023-12-20T02:44:43;6.03;;;4.20;;
6527;SDS011;64597;42.664;23.256;2023-12-20T02:47:09;12.20;;;5.32;;
6527;SDS011;64597;42.664;23.256;2023-12-20T02:49:35;10.20;;;4.75;;
6527;SDS011;64597;42.664;23.256;2023-12-20T02:52:01;7.65;;;4.28;;
6527;SDS011;64597;42.664;23.256;2023-12-20T02:54:28;7.50;;;3.83;;
6527;SDS011;64597;42.664;23.256;2023-12-20T02:56:55;7.28;;;4.20;;
6527;SDS011;64597;42.664;23.256;2023-12-20T02:59:21;8.82;;;4.00;;
6527;SDS011;64597;42.664;23.256;2023-12-20T03:01:47;8.15;;;4.43;;
6527;SDS011;64597;42.664;23.256;2023-12-20T03:04:13;11.65;;;5.55;;
6527;SDS011;64597;42.664;23.256;2023-12-20T03:06:38;10.85;;;4.43;;
6527;SDS011;64597;42.664;23.256;2023-12-20T03:09:05;9.02;;;4.75;;
6527;SDS011;64597;42.664;23.256;2023-12-20T03:11:34;7.57;;;4.78;;
6527;SDS011;64597;42.664;23.256;2023-12-20T03:14:00;6.72;;;4.35;;
6527;SDS011;64597;42.664;23.256;2023-12-20T03:16:27;7.50;;;3.78;;
6527;SDS011;64597;42.664;23.256;2023-12-20T03:18:53;7.85;;;4.65;;
6527;SDS011;64597;42.664;23.256;2023-12-20T03:21:19;6.00;;;4.85;;
6527;SDS011;64597;42.664;23.256;2023-12-20T03:23:44;9.25;;;4.65;;
6527;SDS011;64597;42.664;23.256;2023-12-20T03:26:11;7.60;;;4.25;;
6527;SDS011;64597;42.664;23.256;2023-12-20T03:28:38;9.65;;;4.35;;
6527;SDS011;64597;42.664;23.256;2023-12-20T03:31:04;9.23;;;4.80;;
6527;SDS011;64597;42.664;23.256;2023-12-20T03:33:30;9.35;;;4.82;;
6527;SDS011;64597;42.664;23.256;2023-12-20T03:35:56;11.15;;;5.55;;
6527;SDS011;64597;42.664;23.256;2023-12-20T03:38:22;9.27;;;4.78;;
6527;SDS011;64597;42.664;23.256;2023-12-20T03:40:51;11.38;;;4.68;;
6527;SDS011;64597;42.664;23.256;2023-12-20T03:43:17;11.07;;;5.47;;
6527;SDS011;64597;42.664;23.256;2023-12-20T03:45:43;7.57;;;4.25;;
6527;SDS011;64597;42.664;23.256;2023-12-20T03:48:10;7.88;;;4.28;;
6527;SDS011;64597;42.664;23.256;2023-12-20T03:50:36;9.68;;;4.32;;
6527;SDS011;64597;42.664;23.256;2023-12-20T03:53:03;9.32;;;4.60;;
6527;SDS011;64597;42.664;23.256;2023-12-20T03:55:30;7.50;;;4.25;;
6527;SDS011;64597;42.664;23.256;2023-12-20T03:57:56;8.70;;;3.92;;
6527;SDS011;64597;42.664;23.256;2023-12-20T04:00:21;7.50;;;4.97;;
6527;SDS011;64597;42.664;23.256;2023-12-20T04:02:48;12.60;;;4.53;;
6527;SDS011;64597;42.664;23.256;2023-12-20T04:05:14;10.00;;;4.95;;
6527;SDS011;64597;42.664;23.256;2023-12-20T04:07:40;10.05;;;5.32;;
6527;SDS011;64597;42.664;23.256;2023-12-20T04:10:07;9.82;;;5.38;;
6527;SDS011;64597;42.664;23.256;2023-12-20T04:12:33;9.57;;;4.95;;
6527;SDS011;64597;42.664;23.256;2023-12-20T04:14:59;8.85;;;5.10;;
6527;SDS011;64597;42.664;23.256;2023-12-20T04:17:25;9.85;;;5.55;;
6527;SDS011;64597;42.664;23.256;2023-12-20T04:19:52;8.43;;;5.50;;
6527;SDS011;64597;42.664;23.256;2023-12-20T04:22:18;13.20;;;6.20;;
6527;SDS011;64597;42.664;23.256;2023-12-20T04:24:45;10.15;;;5.70;;
6527;SDS011;64597;42.664;23.256;2023-12-20T04:27:12;8.35;;;4.50;;
6527;SDS011;64597;42.664;23.256;2023-12-20T04:29:39;11.15;;;4.93;;
6527;SDS011;64597;42.664;23.256;2023-12-20T04:32:05;10.45;;;5.53;;
6527;SDS011;64597;42.664;23.256;2023-12-20T04:34:31;9.00;;;5.03;;
6527;SDS011;64597;42.664;23.256;2023-12-20T04:36:57;10.30;;;4.70;;
6527;SDS011;64597;42.664;23.256;2023-12-20T04:39:24;9.05;;;4.95;;
6527;SDS011;64597;42.664;23.256;2023-12-20T04:41:50;9.98;;;4.65;;
6527;SDS011;64597;42.664;23.256;2023-12-20T04:44:16;16.95;;;5.82;;
6527;SDS011;64597;42.664;23.256;2023-12-20T04:46:42;9.75;;;5.72;;
6527;SDS011;64597;42.664;23.256;2023-12-20T04:49:08;11.23;;;5.75;;
6527;SDS011;64597;42.664;23.256;2023-12-20T04:51:35;11.63;;;6.55;;
6527;SDS011;64597;42.664;23.256;2023-12-20T04:54:01;8.10;;;5.18;;
6527;SDS011;64597;42.664;23.256;2023-12-20T04:56:27;11.85;;;6.88;;
6527;SDS011;64597;42.664;23.256;2023-12-20T04:58:54;10.70;;;6.00;;
6527;SDS011;64597;42.664;23.256;2023-12-20T05:01:21;12.77;;;6.68;;
6527;SDS011;64597;42.664;23.256;2023-12-20T05:03:47;10.75;;;6.18;;
6527;SDS011;64597;42.664;23.256;2023-12-20T05:06:14;12.48;;;5.93;;
6527;SDS011;64597;42.664;23.256;2023-12-20T05:08:41;16.70;;;6.78;;
6527;SDS011;64597;42.664;23.256;2023-12-20T05:11:08;13.73;;;6.97;;
6527;SDS011;64597;42.664;23.256;2023-12-20T05:13:34;15.75;;;7.65;;
6527;SDS011;64597;42.664;23.256;2023-12-20T05:16:00;17.10;;;7.43;;
6527;SDS011;64597;42.664;23.256;2023-12-20T05:18:27;11.77;;;6.35;;
6527;SDS011;64597;42.664;23.256;2023-12-20T05:20:52;10.68;;;6.25;;
6527;SDS011;64597;42.664;23.256;2023-12-20T05:23:19;10.50;;;6.57;;
6527;SDS011;64597;42.664;23.256;2023-12-20T05:25:45;16.63;;;7.97;;
6527;SDS011;64597;42.664;23.256;2023-12-20T05:28:12;13.40;;;6.07;;
6527;SDS011;64597;42.664;23.256;2023-12-20T05:30:39;14.95;;;7.63;;
6527;SDS011;64597;42.664;23.256;2023-12-20T05:33:05;16.00;;;8.77;;
6527;SDS011;64597;42.664;23.256;2023-12-20T05:35:31;22.70;;;11.55;;
6527;SDS011;64597;42.664;23.256;2023-12-20T05:37:58;18.52;;;9.57;;
6527;SDS011;64597;42.664;23.256;2023-12-20T05:40:24;13.85;;;8.10;;
6527;SDS011;64597;42.664;23.256;2023-12-20T05:42:50;13.85;;;7.30;;
6527;SDS011;64597;42.664;23.256;2023-12-20T05:45:16;16.90;;;7.10;;
6527;SDS011;64597;42.664;23.256;2023-12-20T05:47:43;13.70;;;8.30;;
6527;SDS011;64597;42.664;23.256;2023-12-20T05:50:09;20.42;;;9.50;;
6527;SDS011;64597;42.664;23.256;2023-12-20T05:52:35;18.75;;;10.40;;
6527;SDS011;64597;42.664;23.256;2023-12-20T05:55:01;20.52;;;11.75;;
6527;SDS011;64597;42.664;23.256;2023-12-20T05:57:27;23.83;;;12.65;;
6527;SDS011;64597;42.664;23.256;2023-12-20T05:59:54;30.38;;;12.77;;
6527;SDS011;64597;42.664;23.256;2023-12-20T06:02:20;27.50;;;13.70;;
6527;SDS011;64597;42.664;23.256;2023-12-20T06:04:47;26.73;;;13.88;;
6527;SDS011;64597;42.664;23.256;2023-12-20T06:07:13;19.90;;;12.07;;
6527;SDS011;64597;42.664;23.256;2023-12-20T06:09:40;24.67;;;13.25;;
6527;SDS011;64597;42.664;23.256;2023-12-20T06:12:07;27.45;;;13.75;;
6527;SDS011;64597;42.664;23.256;2023-12-20T06:14:33;33.33;;;17.17;;
6527;SDS011;64597;42.664;23.256;2023-12-20T06:17:00;35.67;;;20.23;;
6527;SDS011;64597;42.664;23.256;2023-12-20T06:19:27;45.78;;;22.13;;
6527;SDS011;64597;42.664;23.256;2023-12-20T06:21:53;42.90;;;22.48;;
6527;SDS011;64597;42.664;23.256;2023-12-20T06:24:19;48.78;;;22.65;;
6527;SDS011;64597;42.664;23.256;2023-12-20T06:26:46;45.95;;;21.42;;
6527;SDS011;64597;42.664;23.256;2023-12-20T06:29:12;42.63;;;21.83;;
6527;SDS011;64597;42.664;23.256;2023-12-20T06:31:39;39.67;;;19.80;;
6527;SDS011;64597;42.664;23.256;2023-12-20T06:34:07;38.17;;;19.83;;
6527;SDS011;64597;42.664;23.256;2023-12-20T06:36:33;39.80;;;19.75;;
6527;SDS011;64597;42.664;23.256;2023-12-20T06:39:00;46.38;;;22.40;;
6527;SDS011;64597;42.664;23.256;2023-12-20T06:41:27;44.60;;;21.33;;
6527;SDS011;64597;42.664;23.256;2023-12-20T06:43:54;38.65;;;20.48;;
6527;SDS011;64597;42.664;23.256;2023-12-20T06:46:21;49.03;;;22.98;;
6527;SDS011;64597;42.664;23.256;2023-12-20T06:48:47;51.40;;;22.73;;
6527;SDS011;64597;42.664;23.256;2023-12-20T06:51:14;46.50;;;23.00;;
6527;SDS011;64597;42.664;23.256;2023-12-20T06:53:41;42.92;;;22.73;;
6527;SDS011;64597;42.664;23.256;2023-12-20T06:56:08;43.95;;;23.55;;
6527;SDS011;64597;42.664;23.256;2023-12-20T06:58:36;52.50;;;24.15;;
6527;SDS011;64597;42.664;23.256;2023-12-20T07:01:03;40.72;;;22.23;;
6527;SDS011;64597;42.664;23.256;2023-12-20T07:03:30;49.25;;;26.25;;
6527;SDS011;64597;42.664;23.256;2023-12-20T07:05:57;57.42;;;27.38;;
6527;SDS011;64597;42.664;23.256;2023-12-20T07:08:24;54.55;;;25.63;;
6527;SDS011;64597;42.664;23.256;2023-12-20T07:10:51;53.45;;;26.60;;
6527;SDS011;64597;42.664;23.256;2023-12-20T07:13:17;57.85;;;27.60;;
6527;SDS011;64597;42.664;23.256;2023-12-20T07:15:43;50.95;;;27.67;;
6527;SDS011;64597;42.664;23.256;2023-12-20T07:18:09;59.03;;;26.92;;
6527;SDS011;64597;42.664;23.256;2023-12-20T07:20:35;54.20;;;27.10;;
6527;SDS011;64597;42.664;23.256;2023-12-20T07:23:02;61.55;;;26.90;;
6527;SDS011;64597;42.664;23.256;2023-12-20T07:25:29;64.22;;;29.33;;
6527;SDS011;64597;42.664;23.256;2023-12-20T07:27:57;58.35;;;28.58;;
6527;SDS011;64597;42.664;23.256;2023-12-20T07:30:25;54.53;;;28.17;;
6527;SDS011;64597;42.664;23.256;2023-12-20T07:32:51;49.30;;;27.90;;
6527;SDS011;64597;42.664;23.256;2023-12-20T07:35:18;13.23;;;7.45;;
6527;SDS011;64597;42.664;23.256;2023-12-20T07:37:44;51.78;;;25.10;;
6527;SDS011;64597;42.664;23.256;2023-12-20T07:40:11;76.53;;;33.88;;
6527;SDS011;64597;42.664;23.256;2023-12-20T07:42:36;65.72;;;32.92;;
6527;SDS011;64597;42.664;23.256;2023-12-20T07:45:03;65.70;;;31.63;;
6527;SDS011;64597;42.664;23.256;2023-12-20T07:47:29;64.18;;;32.70;;
6527;SDS011;64597;42.664;23.256;2023-12-20T07:49:55;58.45;;;30.20;;
6527;SDS011;64597;42.664;23.256;2023-12-20T07:52:23;61.55;;;30.58;;
6527;SDS011;64597;42.664;23.256;2023-12-20T07:54:49;61.38;;;32.70;;
6527;SDS011;64597;42.664;23.256;2023-12-20T07:57:15;57.90;;;31.08;;
6527;SDS011;64597;42.664;23.256;2023-12-20T07:59:41;57.85;;;31.80;;
6527;SDS011;64597;42.664;23.256;2023-12-20T08:02:07;58.25;;;30.50;;
6527;SDS011;64597;42.664;23.256;2023-12-20T08:04:33;61.45;;;29.23;;
6527;SDS011;64597;42.664;23.256;2023-12-20T08:06:59;62.47;;;32.67;;
6527;SDS011;64597;42.664;23.256;2023-12-20T08:09:25;60.90;;;30.27;;
6527;SDS011;64597;42.664;23.256;2023-12-20T08:11:51;62.47;;;30.23;;
6527;SDS011;64597;42.664;23.256;2023-12-20T08:14:17;66.13;;;31.13;;
6527;SDS011;64597;42.664;23.256;2023-12-20T08:16:43;70.53;;;31.75;;
6527;SDS011;64597;42.664;23.256;2023-12-20T08:19:09;61.10;;;31.45;;
6527;SDS011;64597;42.664;23.256;2023-12-20T08:21:36;61.83;;;32.45;;
6527;SDS011;64597;42.664;23.256;2023-12-20T08:24:02;68.82;;;30.00;;
6527;SDS011;64597;42.664;23.256;2023-12-20T08:26:28;61.67;;;31.77;;
6527;SDS011;64597;42.664;23.256;2023-12-20T08:28:54;65.95;;;33.22;;
6527;SDS011;64597;42.664;23.256;2023-12-20T08:31:20;61.75;;;32.35;;
6527;SDS011;64597;42.664;23.256;2023-12-20T08:33:47;66.50;;;32.22;;
6527;SDS011;64597;42.664;23.256;2023-12-20T08:36:14;71.47;;;35.13;;
6527;SDS011;64597;42.664;23.256;2023-12-20T08:38:42;73.43;;;36.67;;
6527;SDS011;64597;42.664;23.256;2023-12-20T08:41:08;79.40;;;36.92;;
6527;SDS011;64597;42.664;23.256;2023-12-20T08:43:34;70.40;;;33.70;;
6527;SDS011;64597;42.664;23.256;2023-12-20T08:46:01;75.82;;;35.42;;
6527;SDS011;64597;42.664;23.256;2023-12-20T08:48:28;75.20;;;35.90;;
6527;SDS011;64597;42.664;23.256;2023-12-20T08:50:54;76.45;;;35.70;;
6527;SDS011;64597;42.664;23.256;2023-12-20T08:53:19;71.47;;;35.65;;
6527;SDS011;64597;42.664;23.256;2023-12-20T08:55:46;75.65;;;33.83;;
6527;SDS011;64597;42.664;23.256;2023-12-20T08:58:12;82.03;;;36.58;;
6527;SDS011;64597;42.664;23.256;2023-12-20T09:00:39;74.65;;;36.63;;
6527;SDS011;64597;42.664;23.256;2023-12-20T09:03:05;79.53;;;38.70;;
6527;SDS011;64597;42.664;23.256;2023-12-20T09:05:31;75.00;;;34.80;;
6527;SDS011;64597;42.664;23.256;2023-12-20T09:07:57;83.40;;;37.33;;
6527;SDS011;64597;42.664;23.256;2023-12-20T09:10:23;79.85;;;36.25;;
6527;SDS011;64597;42.664;23.256;2023-12-20T09:12:51;86.85;;;37.40;;
6527;SDS011;64597;42.664;23.256;2023-12-20T09:15:25;82.25;;;36.70;;
6527;SDS011;64597;42.664;23.256;2023-12-20T09:17:52;81.43;;;38.22;;
6527;SDS011;64597;42.664;23.256;2023-12-20T09:20:19;79.90;;;35.80;;
6527;SDS011;64597;42.664;23.256;2023-12-20T09:22:45;95.72;;;40.25;;
6527;SDS011;64597;42.664;23.256;2023-12-20T09:25:11;80.65;;;37.55;;
6527;SDS011;64597;42.664;23.256;2023-12-20T09:27:37;85.05;;;38.38;;
6527;SDS011;64597;42.664;23.256;2023-12-20T09:30:03;81.32;;;38.63;;
6527;SDS011;64597;42.664;23.256;2023-12-20T09:32:30;83.57;;;34.85;;
6527;SDS011;64597;42.664;23.256;2023-12-20T09:34:56;81.40;;;35.60;;
6527;SDS011;64597;42.664;23.256;2023-12-20T09:37:26;85.82;;;36.70;;
6527;SDS011;64597;42.664;23.256;2023-12-20T09:39:53;80.93;;;38.25;;
6527;SDS011;64597;42.664;23.256;2023-12-20T09:42:21;77.60;;;35.67;;
6527;SDS011;64597;42.664;23.256;2023-12-20T09:44:54;79.03;;;37.47;;
6527;SDS011;64597;42.664;23.256;2023-12-20T09:47:22;78.38;;;36.88;;
6527;SDS011;64597;42.664;23.256;2023-12-20T09:49:50;88.28;;;39.15;;
6527;SDS011;64597;42.664;23.256;2023-12-20T09:52:16;81.30;;;34.65;;
6527;SDS011;64597;42.664;23.256;2023-12-20T09:54:47;87.97;;;39.25;;
6527;SDS011;64597;42.664;23.256;2023-12-20T09:57:17;88.20;;;42.30;;
6527;SDS011;64597;42.664;23.256;2023-12-20T09:59:43;93.97;;;41.72;;
6527;SDS011;64597;42.664;23.256;2023-12-20T10:02:12;98.38;;;42.67;;
6527;SDS011;64597;42.664;23.256;2023-12-20T10:04:51;90.28;;;37.65;;
6527;SDS011;64597;42.664;23.256;2023-12-20T10:07:16;90.55;;;40.38;;
6527;SDS011;64597;42.664;23.256;2023-12-20T10:09:42;84.25;;;38.67;;
6527;SDS011;64597;42.664;23.256;2023-12-20T10:12:10;82.57;;;39.25;;
6527;SDS011;64597;42.664;23.256;2023-12-20T10:14:36;90.47;;;41.70;;
6527;SDS011;64597;42.664;23.256;2023-12-20T10:17:04;90.72;;;36.85;;
6527;SDS011;64597;42.664;23.256;2023-12-20T10:19:31;90.18;;;40.72;;
6527;SDS011;64597;42.664;23.256;2023-12-20T10:21:58;83.78;;;36.92;;
6527;SDS011;64597;42.664;23.256;2023-12-20T10:24:25;77.43;;;37.90;;
6527;SDS011;64597;42.664;23.256;2023-12-20T10:27:06;85.35;;;39.47;;
6527;SDS011;64597;42.664;23.256;2023-12-20T10:29:36;81.22;;;37.88;;
6527;SDS011;64597;42.664;23.256;2023-12-20T10:32:22;92.95;;;39.55;;
6527;SDS011;64597;42.664;23.256;2023-12-20T10:34:52;81.00;;;40.95;;
6527;SDS011;64597;42.664;23.256;2023-12-20T10:37:18;78.35;;;40.58;;
6527;SDS011;64597;42.664;23.256;2023-12-20T10:39:48;91.15;;;42.33;;
6527;SDS011;64597;42.664;23.256;2023-12-20T10:42:17;87.43;;;38.88;;
6527;SDS011;64597;42.664;23.256;2023-12-20T10:44:46;87.68;;;41.65;;
6527;SDS011;64597;42.664;23.256;2023-12-20T10:47:13;79.50;;;41.50;;
6527;SDS011;64597;42.664;23.256;2023-12-20T10:49:39;58.78;;;26.50;;
6527;SDS011;64597;42.664;23.256;2023-12-20T10:52:07;95.75;;;44.92;;
6527;SDS011;64597;42.664;23.256;2023-12-20T10:54:37;83.22;;;43.10;;
6527;SDS011;64597;42.664;23.256;2023-12-20T10:57:08;95.03;;;45.58;;
6527;SDS011;64597;42.664;23.256;2023-12-20T10:59:36;89.25;;;44.60;;
6527;SDS011;64597;42.664;23.256;2023-12-20T11:02:03;80.72;;;43.38;;
6527;SDS011;64597;42.664;23.256;2023-12-20T11:07:08;88.72;;;44.72;;
6527;SDS011;64597;42.664;23.256;2023-12-20T11:09:43;85.43;;;42.40;;
6527;SDS011;64597;42.664;23.256;2023-12-20T11:12:39;82.63;;;44.17;;
6527;SDS011;64597;42.664;23.256;2023-12-20T11:15:12;74.38;;;40.15;;
6527;SDS011;64597;42.664;23.256;2023-12-20T11:17:39;92.50;;;43.78;;
6527;SDS011;64597;42.664;23.256;2023-12-20T11:20:06;82.38;;;42.25;;
6527;SDS011;64597;42.664;23.256;2023-12-20T11:22:33;81.47;;;42.85;;
6527;SDS011;64597;42.664;23.256;2023-12-20T11:25:03;78.07;;;42.13;;
6527;SDS011;64597;42.664;23.256;2023-12-20T11:27:34;78.30;;;40.47;;
6527;SDS011;64597;42.664;23.256;2023-12-20T11:30:00;89.35;;;45.30;;
6527;SDS011;64597;42.664;23.256;2023-12-20T11:32:29;85.28;;;42.83;;
6527;SDS011;64597;42.664;23.256;2023-12-20T11:34:59;89.57;;;43.95;;
6527;SDS011;64597;42.664;23.256;2023-12-20T11:37:28;91.30;;;43.20;;
6527;SDS011;64597;42.664;23.256;2023-12-20T11:40:03;91.53;;;44.20;;
6527;SDS011;64597;42.664;23.256;2023-12-20T11:42:32;82.95;;;41.50;;
6527;SDS011;64597;42.664;23.256;2023-12-20T11:45:01;86.18;;;44.97;;
6527;SDS011;64597;42.664;23.256;2023-12-20T11:47:29;85.95;;;46.13;;
6527;SDS011;64597;42.664;23.256;2023-12-20T11:49:56;95.30;;;46.45;;
6527;SDS011;64597;42.664;23.256;2023-12-20T11:52:22;94.10;;;46.13;;
6527;SDS011;64597;42.664;23.256;2023-12-20T11:54:47;96.45;;;45.47;;
6527;SDS011;64597;42.664;23.256;2023-12-20T11:57:13;89.20;;;45.88;;
6527;SDS011;64597;42.664;23.256;2023-12-20T11:59:39;89.53;;;44.30;;
6527;SDS011;64597;42.664;23.256;2023-12-20T12:02:05;84.25;;;43.17;;
6527;SDS011;64597;42.664;23.256;2023-12-20T12:04:32;79.88;;;43.75;;
6527;SDS011;64597;42.664;23.256;2023-12-20T12:06:58;94.80;;;46.97;;
6527;SDS011;64597;42.664;23.256;2023-12-20T12:09:24;100.55;;;46.90;;
6527;SDS011;64597;42.664;23.256;2023-12-20T12:11:50;93.70;;;47.38;;
6527;SDS011;64597;42.664;23.256;2023-12-20T12:14:17;89.35;;;46.70;;
6527;SDS011;64597;42.664;23.256;2023-12-20T12:16:44;95.22;;;47.85;;
6527;SDS011;64597;42.664;23.256;2023-12-20T12:19:20;92.28;;;47.25;;
6527;SDS011;64597;42.664;23.256;2023-12-20T12:21:51;89.15;;;45.90;;
6527;SDS011;64597;42.664;23.256;2023-12-20T12:24:29;87.40;;;45.78;;
6527;SDS011;64597;42.664;23.256;2023-12-20T12:26:57;88.03;;;44.47;;
6527;SDS011;64597;42.664;23.256;2023-12-20T12:29:23;93.70;;;47.10;;
6527;SDS011;64597;42.664;23.256;2023-12-20T12:31:50;93.90;;;46.20;;
6527;SDS011;64597;42.664;23.256;2023-12-20T12:34:17;84.60;;;47.33;;
6527;SDS011;64597;42.664;23.256;2023-12-20T12:36:43;92.47;;;48.53;;
6527;SDS011;64597;42.664;23.256;2023-12-20T12:39:17;94.53;;;46.45;;
6527;SDS011;64597;42.664;23.256;2023-12-20T12:41:44;99.72;;;49.50;;
6527;SDS011;64597;42.664;23.256;2023-12-20T12:44:10;95.45;;;47.15;;
6527;SDS011;64597;42.664;23.256;2023-12-20T12:46:36;93.10;;;43.58;;
6527;SDS011;64597;42.664;23.256;2023-12-20T12:49:03;88.95;;;44.50;;
6527;SDS011;64597;42.664;23.256;2023-12-20T12:51:30;88.88;;;42.45;;
6527;SDS011;64597;42.664;23.256;2023-12-20T12:54:02;64.80;;;30.30;;
6527;SDS011;64597;42.664;23.256;2023-12-20T12:56:36;77.72;;;41.03;;
6527;SDS011;64597;42.664;23.256;2023-12-20T12:59:12;76.80;;;39.25;;
6527;SDS011;64597;42.664;23.256;2023-12-20T13:01:38;77.90;;;39.05;;
6527;SDS011;64597;42.664;23.256;2023-12-20T13:04:04;77.95;;;40.20;;
6527;SDS011;64597;42.664;23.256;2023-12-20T13:06:32;82.80;;;39.75;;
6527;SDS011;64597;42.664;23.256;2023-12-20T13:08:58;79.20;;;38.97;;
6527;SDS011;64597;42.664;23.256;2023-12-20T13:11:23;80.57;;;36.83;;
6527;SDS011;64597;42.664;23.256;2023-12-20T13:13:50;82.50;;;37.60;;
6527;SDS011;64597;42.664;23.256;2023-12-20T13:16:15;78.53;;;35.50;;
6527;SDS011;64597;42.664;23.256;2023-12-20T13:18:41;82.38;;;37.65;;
6527;SDS011;64597;42.664;23.256;2023-12-20T13:21:07;74.30;;;36.15;;
6527;SDS011;64597;42.664;23.256;2023-12-20T13:23:34;72.38;;;34.58;;
6527;SDS011;64597;42.664;23.256;2023-12-20T13:25:59;77.60;;;36.97;;
6527;SDS011;64597;42.664;23.256;2023-12-20T13:28:25;89.03;;;39.53;;
6527;SDS011;64597;42.664;23.256;2023-12-20T13:30:50;85.63;;;39.75;;
6527;SDS011;64597;42.664;23.256;2023-12-20T13:33:16;82.30;;;36.72;;
6527;SDS011;64597;42.664;23.256;2023-12-20T13:35:42;81.78;;;37.78;;
6527;SDS011;64597;42.664;23.256;2023-12-20T13:38:09;78.45;;;37.90;;
6527;SDS011;64597;42.664;23.256;2023-12-20T13:40:35;92.65;;;40.08;;
6527;SDS011;64597;42.664;23.256;2023-12-20T13:43:01;84.97;;;37.22;;
6527;SDS011;64597;42.664;23.256;2023-12-20T13:45:28;88.72;;;42.17;;
6527;SDS011;64597;42.664;23.256;2023-12-20T13:47:54;88.63;;;42.17;;
6527;SDS011;64597;42.664;23.256;2023-12-20T13:50:24;82.40;;;39.47;;
6527;SDS011;64597;42.664;23.256;2023-12-20T13:52:50;92.72;;;41.67;;
6527;SDS011;64597;42.664;23.256;2023-12-20T13:55:16;82.07;;;40.72;;
6527;SDS011;64597;42.664;23.256;2023-12-20T13:57:42;83.10;;;40.40;;
6527;SDS011;64597;42.664;23.256;2023-12-20T14:00:08;78.70;;;39.13;;
6527;SDS011;64597;42.664;23.256;2023-12-20T14:02:41;77.78;;;35.95;;
6527;SDS011;64597;42.664;23.256;2023-12-20T14:05:08;73.97;;;36.13;;
6527;SDS011;64597;42.664;23.256;2023-12-20T14:07:35;86.03;;;39.80;;
6527;SDS011;64597;42.664;23.256;2023-12-20T14:10:01;73.85;;;35.38;;
6527;SDS011;64597;42.664;23.256;2023-12-20T14:12:28;88.35;;;40.90;;
6527;SDS011;64597;42.664;23.256;2023-12-20T14:14:54;75.30;;;35.42;;
6527;SDS011;64597;42.664;23.256;2023-12-20T14:17:21;84.80;;;38.15;;
6527;SDS011;64597;42.664;23.256;2023-12-20T14:19:47;85.18;;;40.33;;
6527;SDS011;64597;42.664;23.256;2023-12-20T14:22:12;88.30;;;41.92;;
6527;SDS011;64597;42.664;23.256;2023-12-20T14:24:42;118.75;;;49.17;;
6527;SDS011;64597;42.664;23.256;2023-12-20T14:27:09;115.65;;;53.40;;
6527;SDS011;64597;42.664;23.256;2023-12-20T14:29:36;112.65;;;50.08;;